EZS4221 LSZB-EBBR
Flight info
| Callsign | EZS4221 |
|---|---|
| Flight time | N/A |
| Altitude | 18000 |
| Route | KONOL Z59 LUMEL Z600 HR DCT EDOPI DCT GIVOR/N0384F170 DCT SORAL/N0379F160 DCT IBERA DCT LIMGO DCT DIK Y37 BATTY |
| Aircraft | A320/M-SDE3FGHIRWY/LB1 |
Departure
| Time | 2026-04-30 05:58 |
|---|---|
| Airport | Bern Airport (LSZB) |
Arrival
| Time | N/A |
|---|---|
| Airport | Brussels Airport (EBBR) |
| Time | Latitude | Longitude | Altitude | Speed | Heading |
|---|---|---|---|---|---|
| 2026-04-30 05:45 | 46.91025 | 7.50432 | 1683 ft | 0 kts | 51° |
| 2026-04-30 05:52 | 46.91021 | 7.50434 | 1682 ft | 4 kts | 99° |
| 2026-04-30 05:53 | 46.91021 | 7.50403 | 1682 ft | 4 kts | 79° |
| 2026-04-30 05:53 | 46.91018 | 7.50364 | 1682 ft | 4 kts | 99° |
| 2026-04-30 05:53 | 46.91028 | 7.50332 | 1682 ft | 2 kts | 140° |
| 2026-04-30 05:53 | 46.91032 | 7.50326 | 1682 ft | 0 kts | 141° |
| 2026-04-30 05:55 | 46.91012 | 7.50358 | 1682 ft | 7 kts | 131° |
| 2026-04-30 05:56 | 46.90984 | 7.50399 | 1683 ft | 0 kts | 148° |
| 2026-04-30 05:56 | 46.90981 | 7.50402 | 1683 ft | 3 kts | 148° |
| 2026-04-30 05:57 | 46.90915 | 7.50375 | 1682 ft | 0 kts | 249° |
| 2026-04-30 05:57 | 46.90914 | 7.50339 | 1682 ft | 15 kts | 279° |
| 2026-04-30 05:57 | 46.91206 | 7.49959 | 1683 ft | 104 kts | 321° |
| 2026-04-30 05:57 | 46.91968 | 7.49031 | 1801 ft | 167 kts | 320° |
| 2026-04-30 05:58 | 46.92839 | 7.47963 | 2739 ft | 165 kts | 320° |
| 2026-04-30 05:58 | 46.93749 | 7.46871 | 3433 ft | 175 kts | 321° |
| 2026-04-30 05:58 | 46.94731 | 7.45695 | 3981 ft | 186 kts | 322° |
| 2026-04-30 05:58 | 46.95745 | 7.44500 | 4658 ft | 191 kts | 327° |
| 2026-04-30 05:59 | 46.97030 | 7.43724 | 5018 ft | 213 kts | 345° |
| 2026-04-30 05:59 | 46.98530 | 7.43054 | 5488 ft | 238 kts | 345° |
| 2026-04-30 05:59 | 47.00193 | 7.42307 | 5972 ft | 262 kts | 345° |
| 2026-04-30 05:59 | 47.01998 | 7.41489 | 6669 ft | 278 kts | 345° |
| 2026-04-30 06:00 | 47.03862 | 7.40631 | 7586 ft | 284 kts | 345° |
| 2026-04-30 06:00 | 47.05762 | 7.39750 | 8515 ft | 289 kts | 345° |
| 2026-04-30 06:00 | 47.07686 | 7.38858 | 9420 ft | 292 kts | 345° |
| 2026-04-30 06:00 | 47.09639 | 7.37954 | 10333 ft | 296 kts | 345° |
| 2026-04-30 06:01 | 47.11677 | 7.37014 | 10820 ft | 318 kts | 344° |
| 2026-04-30 06:01 | 47.13864 | 7.36009 | 11127 ft | 342 kts | 344° |
| 2026-04-30 06:01 | 47.16180 | 7.34943 | 11693 ft | 353 kts | 344° |
| 2026-04-30 06:01 | 47.18538 | 7.33852 | 12501 ft | 357 kts | 343° |
| 2026-04-30 06:02 | 47.20916 | 7.32751 | 13325 ft | 360 kts | 343° |
| 2026-04-30 06:02 | 47.23313 | 7.31641 | 14140 ft | 362 kts | 344° |
| 2026-04-30 06:02 | 47.25728 | 7.30527 | 14913 ft | 365 kts | 344° |
| 2026-04-30 06:02 | 47.28157 | 7.29403 | 15658 ft | 368 kts | 344° |
| 2026-04-30 06:03 | 47.30499 | 7.27948 | 16359 ft | 373 kts | 334° |
| 2026-04-30 06:03 | 47.32664 | 7.25809 | 17071 ft | 379 kts | 323° |
| 2026-04-30 06:03 | 47.34661 | 7.23235 | 17749 ft | 383 kts | 321° |
| 2026-04-30 06:03 | 47.36669 | 7.20627 | 18127 ft | 385 kts | 322° |
| 2026-04-30 06:04 | 47.38689 | 7.18004 | 18230 ft | 393 kts | 320° |
| 2026-04-30 06:04 | 47.40617 | 7.14975 | 18251 ft | 415 kts | 311° |